createdAt,value
2018-11-25T00:00:01.765Z,35.80
2018-11-25T00:03:06.501Z,33.27
2018-11-25T00:06:11.067Z,35.80
2018-11-25T00:09:15.644Z,37.17
2018-11-25T00:12:20.197Z,37.07
2018-11-25T00:15:24.815Z,35.63
2018-11-25T00:18:29.347Z,36.07
2018-11-25T00:21:33.996Z,34.07
2018-11-25T00:24:38.516Z,44.60
2018-11-25T00:27:43.228Z,38.07
2018-11-25T00:30:47.897Z,41.37
2018-11-25T00:33:52.423Z,35.87
2018-11-25T00:36:57.003Z,33.97
2018-11-25T00:40:01.574Z,32.53
2018-11-25T00:43:06.682Z,36.40
2018-11-25T00:46:11.200Z,34.77
2018-11-25T00:49:15.723Z,35.73
2018-11-25T00:52:20.512Z,36.13
2018-11-25T00:55:25.031Z,31.40
2018-11-25T00:58:29.737Z,35.43
2018-11-25T01:01:34.397Z,38.50
2018-11-25T01:04:39.002Z,37.33
2018-11-25T01:07:43.537Z,34.00
2018-11-25T01:10:48.121Z,34.33
2018-11-25T01:13:52.663Z,36.53
2018-11-25T01:16:57.187Z,36.43
2018-11-25T01:20:01.725Z,35.57
2018-11-25T01:23:06.660Z,35.20
2018-11-25T01:26:11.296Z,36.43
2018-11-25T01:29:15.821Z,35.83
2018-11-25T01:32:20.483Z,36.70
2018-11-25T01:35:25.077Z,36.07
2018-11-25T01:38:29.627Z,35.40
2018-11-25T01:41:34.192Z,34.97
2018-11-25T01:44:38.713Z,34.20
2018-11-25T01:47:43.324Z,30.67
2018-11-25T01:50:47.851Z,30.47
2018-11-25T01:53:52.391Z,33.30
2018-11-25T01:56:56.983Z,38.17
2018-11-25T02:00:01.553Z,36.30
2018-11-25T02:03:06.233Z,35.53
2018-11-25T02:06:10.792Z,36.53
2018-11-25T02:09:15.326Z,34.03
2018-11-25T02:12:19.935Z,35.40
2018-11-25T02:15:24.472Z,36.03
2018-11-25T02:18:29.024Z,34.47
2018-11-25T02:21:33.573Z,36.33
2018-11-25T02:24:38.104Z,35.53
2018-11-25T02:27:42.724Z,36.33
2018-11-25T02:30:47.425Z,36.77
2018-11-25T02:33:51.965Z,37.17
2018-11-25T02:36:56.550Z,37.43
2018-11-25T02:40:01.073Z,37.57
2018-11-25T02:43:05.739Z,36.10
2018-11-25T02:46:10.329Z,37.93
2018-11-25T02:49:14.873Z,36.70
2018-11-25T02:52:19.495Z,36.70
2018-11-25T02:55:24.955Z,38.37
2018-11-25T02:58:29.550Z,37.10
2018-11-25T03:01:34.114Z,37.67
2018-11-25T03:04:38.728Z,38.60
2018-11-25T03:07:43.357Z,39.63
2018-11-25T03:10:47.879Z,36.50
2018-11-25T03:13:52.466Z,37.93
2018-11-25T03:16:57.027Z,37.43
2018-11-25T03:20:01.601Z,37.77
2018-11-25T03:23:06.556Z,36.77
2018-11-25T03:26:11.232Z,38.17
2018-11-25T03:29:15.763Z,35.37
2018-11-25T03:32:20.415Z,36.07
2018-11-25T03:35:24.970Z,35.13
2018-11-25T03:38:29.555Z,36.80
2018-11-25T03:41:34.139Z,36.97
2018-11-25T03:44:38.792Z,35.37
2018-11-25T03:47:43.377Z,36.00
2018-11-25T03:50:47.917Z,35.73
2018-11-25T03:53:52.532Z,35.67
2018-11-25T03:56:57.057Z,36.43
2018-11-25T04:00:01.697Z,37.67
2018-11-25T04:03:06.360Z,35.77
2018-11-25T04:06:10.949Z,37.80
2018-11-25T04:09:15.549Z,35.33
2018-11-25T04:12:20.086Z,36.50
2018-11-25T04:15:24.856Z,35.50
2018-11-25T04:18:29.429Z,36.03
2018-11-25T04:21:33.961Z,35.40
2018-11-25T04:24:38.540Z,35.17
2018-11-25T04:27:43.125Z,35.80
2018-11-25T04:30:47.701Z,35.83
2018-11-25T04:33:52.228Z,35.83
2018-11-25T04:36:56.752Z,36.73
2018-11-25T04:40:01.326Z,38.13
2018-11-25T04:43:06.318Z,37.47
2018-11-25T04:46:10.862Z,37.33
2018-11-25T04:49:15.378Z,35.50
2018-11-25T04:52:19.971Z,36.57
2018-11-25T04:55:24.592Z,36.83
2018-11-25T04:58:29.537Z,38.80
2018-11-25T05:01:34.045Z,39.13
2018-11-25T05:04:38.569Z,37.37
2018-11-25T05:07:43.200Z,36.73
2018-11-25T05:10:47.832Z,35.90
2018-11-25T05:13:52.380Z,36.40
2018-11-25T05:16:57.000Z,36.60
2018-11-25T05:20:01.568Z,37.67
2018-11-25T05:23:06.581Z,35.50
2018-11-25T05:26:11.265Z,36.03
2018-11-25T05:29:15.814Z,36.07
2018-11-25T05:32:20.433Z,37.60
2018-11-25T05:35:24.955Z,36.97
2018-11-25T05:38:29.554Z,38.27
2018-11-25T05:41:34.137Z,36.70
2018-11-25T05:44:38.723Z,37.47
2018-11-25T05:47:43.304Z,37.67
2018-11-25T05:50:47.983Z,39.77
2018-11-25T05:53:52.508Z,55.60
2018-11-25T05:56:57.115Z,41.97
2018-11-25T06:00:01.657Z,51.53
2018-11-25T06:03:06.236Z,56.93
2018-11-25T06:06:10.829Z,46.93
2018-11-25T06:09:15.388Z,46.17
2018-11-25T06:12:19.935Z,44.13
2018-11-25T06:15:24.509Z,45.23
2018-11-25T06:18:29.056Z,53.13
2018-11-25T06:21:33.680Z,44.73
2018-11-25T06:24:38.206Z,44.37
2018-11-25T06:27:42.816Z,40.77
2018-11-25T06:30:47.356Z,40.13
2018-11-25T06:33:51.900Z,44.23
2018-11-25T06:36:56.513Z,47.00
2018-11-25T06:40:01.023Z,45.47
2018-11-25T06:43:06.033Z,45.70
2018-11-25T06:46:12.144Z,45.07
2018-11-25T06:49:16.764Z,40.70
2018-11-25T06:52:21.328Z,45.23
2018-11-25T06:55:25.908Z,40.27
2018-11-25T06:58:30.493Z,42.03
2018-11-25T07:01:35.111Z,42.27
2018-11-25T07:04:39.770Z,41.00
2018-11-25T07:07:44.376Z,36.87
2018-11-25T07:10:48.945Z,39.73
2018-11-25T07:13:53.487Z,41.80
2018-11-25T07:16:58.019Z,42.10
2018-11-25T07:20:02.605Z,37.90
2018-11-25T07:23:07.228Z,42.53
2018-11-25T07:26:11.771Z,41.00
2018-11-25T07:29:16.529Z,44.77
2018-11-25T07:32:21.050Z,42.97
2018-11-25T07:35:27.760Z,40.17
2018-11-25T07:38:32.313Z,41.70
2018-11-25T07:41:37.211Z,38.13
2018-11-25T07:44:41.840Z,39.77
2018-11-25T07:47:47.404Z,34.43
2018-11-25T07:50:51.997Z,37.40
2018-11-25T07:53:56.594Z,39.00
2018-11-25T07:57:01.159Z,35.20
2018-11-25T08:00:08.264Z,35.00
2018-11-25T08:03:12.978Z,35.27
2018-11-25T08:06:18.816Z,39.07
2018-11-25T08:09:24.784Z,38.27
2018-11-25T08:12:29.373Z,40.63
2018-11-25T08:15:36.104Z,37.83
2018-11-25T08:18:40.643Z,40.07
2018-11-25T08:21:45.291Z,46.77
2018-11-25T08:24:49.983Z,42.37
2018-11-25T08:27:54.748Z,37.10
2018-11-25T08:31:00.251Z,37.57
2018-11-25T08:34:04.864Z,38.60
2018-11-25T08:37:09.466Z,38.83
2018-11-25T08:40:15.975Z,39.77
2018-11-25T08:43:20.594Z,40.70
2018-11-25T08:46:25.190Z,40.27
2018-11-25T08:49:29.735Z,41.43
2018-11-25T08:52:34.275Z,39.60
2018-11-25T08:55:38.824Z,41.37
2018-11-25T08:58:43.385Z,37.97
2018-11-25T09:01:48.038Z,39.30
2018-11-25T09:04:52.588Z,40.60
2018-11-25T09:07:57.170Z,39.10
2018-11-25T09:11:01.798Z,39.20
2018-11-25T09:14:06.532Z,42.27
2018-11-25T09:17:11.118Z,50.57
2018-11-25T09:20:20.613Z,54.27
2018-11-25T09:23:25.218Z,41.87
2018-11-25T09:26:29.764Z,139.83
2018-11-25T09:29:34.364Z,51.67
2018-11-25T09:32:38.896Z,53.90
2018-11-25T09:35:43.521Z,48.97
2018-11-25T09:38:48.073Z,68.80
2018-11-25T09:41:52.636Z,47.60
2018-11-25T09:44:57.203Z,74.53
2018-11-25T09:48:01.736Z,59.27
2018-11-25T09:51:06.382Z,45.93
2018-11-25T09:54:10.992Z,45.80
2018-11-25T09:57:15.547Z,46.83
2018-11-25T10:00:21.308Z,57.23
2018-11-25T10:03:25.904Z,55.40
2018-11-25T10:06:30.486Z,47.53
2018-11-25T10:09:35.075Z,54.00
2018-11-25T10:12:39.688Z,44.97
2018-11-25T10:15:44.225Z,55.50
2018-11-25T10:18:48.761Z,44.10
2018-11-25T10:21:53.386Z,45.93
2018-11-25T10:24:58.038Z,44.70
2018-11-25T10:28:02.682Z,43.90
2018-11-25T10:31:07.328Z,47.37
2018-11-25T10:34:11.869Z,46.97
2018-11-25T10:37:16.467Z,52.07
2018-11-25T10:40:22.198Z,45.87
2018-11-25T10:43:26.770Z,44.13
2018-11-25T10:46:31.357Z,41.07
2018-11-25T10:49:35.889Z,44.80
2018-11-25T10:52:40.481Z,41.03
2018-11-25T10:55:45.080Z,43.60
2018-11-25T10:58:49.733Z,43.40
2018-11-25T11:01:59.624Z,46.50
2018-11-25T11:05:06.092Z,41.73
2018-11-25T11:08:11.032Z,41.00
2018-11-25T11:11:15.655Z,47.20
2018-11-25T11:14:20.200Z,42.00
2018-11-25T11:17:24.790Z,40.37
2018-11-25T11:20:29.399Z,39.23
2018-11-25T11:23:33.943Z,43.93
2018-11-25T11:26:38.545Z,43.27
2018-11-25T11:29:43.138Z,41.10
2018-11-25T11:32:48.965Z,38.43
2018-11-25T11:35:53.561Z,37.83
2018-11-25T11:38:58.084Z,42.53
2018-11-25T11:42:02.621Z,40.30
2018-11-25T11:45:11.344Z,40.43
2018-11-25T11:48:16.016Z,37.77
2018-11-25T11:51:25.501Z,31.90
2018-11-25T11:54:25.277Z,33.60
2018-11-25T11:57:30.939Z,34.83
2018-11-25T12:00:35.467Z,36.73
2018-11-25T12:03:40.092Z,35.83
2018-11-25T12:06:44.650Z,32.97
2018-11-25T12:09:49.233Z,41.53
2018-11-25T12:12:53.827Z,37.97
2018-11-25T12:15:58.391Z,34.97
2018-11-25T12:19:03.033Z,42.30
2018-11-25T12:22:07.637Z,49.17
2018-11-25T12:25:15.736Z,50.50
2018-11-25T12:28:20.350Z,49.70
2018-11-25T12:31:24.925Z,51.63
2018-11-25T12:34:29.486Z,51.53
2018-11-25T12:37:36.069Z,52.67
2018-11-25T12:40:38.716Z,54.83
2018-11-25T12:43:43.308Z,50.83
2018-11-25T12:46:47.867Z,52.07
2018-11-25T12:49:52.496Z,50.40
2018-11-25T12:52:57.216Z,49.70
2018-11-25T12:56:01.827Z,53.20
2018-11-25T12:59:06.552Z,51.00
2018-11-25T13:02:11.133Z,54.43
2018-11-25T13:05:15.760Z,51.33
2018-11-25T13:08:20.449Z,53.10
2018-11-25T13:11:25.063Z,52.30
2018-11-25T13:14:29.604Z,49.40
2018-11-25T13:17:34.502Z,59.97
2018-11-25T13:20:39.144Z,51.50
2018-11-25T13:23:43.733Z,55.13
2018-11-25T13:26:51.401Z,60.70
2018-11-25T13:29:55.957Z,58.53
2018-11-25T13:33:01.672Z,56.40
2018-11-25T13:36:08.505Z,51.23
2018-11-25T13:39:13.124Z,56.77
2018-11-25T13:42:17.814Z,55.67
2018-11-25T13:45:22.426Z,58.77
2018-11-25T13:48:27.096Z,54.37
2018-11-25T13:51:31.666Z,53.33
2018-11-25T13:54:36.927Z,51.93
2018-11-25T13:57:41.511Z,53.73
2018-11-25T14:00:48.687Z,56.00
2018-11-25T14:03:53.271Z,93.13
2018-11-25T14:06:57.870Z,63.07
2018-11-25T14:10:02.433Z,64.20
2018-11-25T14:13:07.512Z,61.10
2018-11-25T14:16:14.157Z,58.97
2018-11-25T14:19:18.772Z,66.87
2018-11-25T14:22:23.315Z,63.33
2018-11-25T14:25:28.225Z,62.90
2018-11-25T14:28:32.905Z,68.13
2018-11-25T14:31:37.548Z,61.70
2018-11-25T14:34:42.108Z,65.73
2018-11-25T14:37:46.796Z,80.70
2018-11-25T14:40:51.438Z,65.57
2018-11-25T14:43:56.200Z,56.70
2018-11-25T14:47:00.887Z,50.73
2018-11-25T14:50:08.167Z,78.27
2018-11-25T14:53:12.737Z,155.97
2018-11-25T14:56:17.398Z,89.97
2018-11-25T14:59:21.970Z,70.37
2018-11-25T15:02:26.591Z,63.70
2018-11-25T15:05:33.960Z,55.43
2018-11-25T15:08:38.608Z,56.80
2018-11-25T15:11:43.276Z,59.53
2018-11-25T15:14:47.896Z,59.07
2018-11-25T15:17:52.817Z,55.40
2018-11-25T15:20:57.559Z,57.70
2018-11-25T15:24:02.191Z,56.63
2018-11-25T15:27:07.483Z,57.47
2018-11-25T15:30:12.986Z,61.40
2018-11-25T15:33:17.636Z,59.00
2018-11-25T15:36:22.305Z,126.53
2018-11-25T15:39:26.973Z,64.47
2018-11-25T15:42:31.553Z,63.43
2018-11-25T15:45:36.473Z,58.60
2018-11-25T15:48:41.179Z,63.40
2018-11-25T15:51:45.764Z,70.80
2018-11-25T15:54:50.414Z,67.43
2018-11-25T15:57:55.051Z,59.23
2018-11-25T16:00:59.628Z,64.87
2018-11-25T16:04:04.366Z,60.83
2018-11-25T16:07:08.973Z,60.53
2018-11-25T16:10:14.404Z,70.43
2018-11-25T16:13:18.966Z,63.17
2018-11-25T16:16:24.473Z,57.67
2018-11-25T16:19:29.367Z,56.53
2018-11-25T16:22:33.912Z,59.00
2018-11-25T16:25:41.153Z,59.27
2018-11-25T16:28:47.577Z,59.53
2018-11-25T16:31:52.103Z,57.27
2018-11-25T16:34:56.729Z,63.40
2018-11-25T16:38:01.586Z,63.17
2018-11-25T16:41:06.776Z,65.63
2018-11-25T16:44:11.356Z,69.10
2018-11-25T16:47:16.004Z,61.50
2018-11-25T16:50:25.317Z,63.77
2018-11-25T16:53:25.188Z,63.67
2018-11-25T16:56:29.753Z,120.63
2018-11-25T16:59:34.343Z,85.27
2018-11-25T17:02:38.892Z,86.93
2018-11-25T17:05:48.257Z,112.33
2018-11-25T17:08:52.801Z,57.00
2018-11-25T17:11:57.396Z,51.30
2018-11-25T17:15:01.962Z,55.67
2018-11-25T17:18:06.711Z,57.63
2018-11-25T17:21:11.339Z,60.03
2018-11-25T17:24:15.936Z,57.13
2018-11-25T17:27:20.529Z,59.73
2018-11-25T17:30:25.129Z,66.83
2018-11-25T17:33:29.800Z,61.37
2018-11-25T17:36:35.383Z,64.97
2018-11-25T17:39:39.980Z,82.90
2018-11-25T17:42:45.825Z,72.10
2018-11-25T17:45:50.481Z,68.30
2018-11-25T17:48:55.145Z,66.73
2018-11-25T17:52:00.564Z,62.47
2018-11-25T17:55:05.744Z,60.73
2018-11-25T17:58:11.220Z,58.97
2018-11-25T18:01:15.823Z,61.10
2018-11-25T18:04:20.468Z,65.07
2018-11-25T18:07:25.121Z,64.63
2018-11-25T18:10:29.826Z,66.40
2018-11-25T18:13:36.750Z,61.10
2018-11-25T18:16:41.352Z,64.47
2018-11-25T18:19:45.935Z,63.93
2018-11-25T18:22:50.875Z,62.13
2018-11-25T18:25:55.527Z,62.13
2018-11-25T18:29:00.114Z,63.37
2018-11-25T18:32:04.818Z,67.50
2018-11-25T18:35:10.509Z,59.57
2018-11-25T18:38:15.185Z,58.27
2018-11-25T18:41:19.878Z,58.77
2018-11-25T18:44:24.776Z,65.23
2018-11-25T18:47:29.473Z,62.50
2018-11-25T18:50:34.029Z,61.10
2018-11-25T18:53:38.664Z,70.03
2018-11-25T18:56:43.273Z,62.57
2018-11-25T18:59:50.080Z,204.53
2018-11-25T19:02:54.663Z,115.73
2018-11-25T19:05:59.247Z,78.80
2018-11-25T19:09:04.154Z,69.60
2018-11-25T19:12:08.743Z,73.33
2018-11-25T19:15:15.746Z,80.33
2018-11-25T19:18:20.339Z,74.27
2018-11-25T19:21:24.877Z,69.67
2018-11-25T19:24:29.596Z,87.37
2018-11-25T19:27:34.153Z,69.37
2018-11-25T19:30:38.705Z,67.87
2018-11-25T19:33:43.355Z,69.47
2018-11-25T19:36:49.149Z,73.97
2018-11-25T19:39:53.691Z,84.83
2018-11-25T19:43:03.569Z,67.70
2018-11-25T19:46:08.148Z,65.63
2018-11-25T19:49:13.151Z,60.87
2018-11-25T19:52:17.932Z,63.13
2018-11-25T19:55:25.555Z,63.97
2018-11-25T19:58:30.831Z,75.80
2018-11-25T20:01:35.527Z,70.40
2018-11-25T20:04:40.231Z,67.07
2018-11-25T20:07:45.391Z,67.97
2018-11-25T20:10:50.005Z,66.77
2018-11-25T20:13:54.594Z,65.87
2018-11-25T20:17:04.439Z,77.20
2018-11-25T20:20:12.097Z,58.40
2018-11-25T20:23:16.836Z,64.50
2018-11-25T20:26:21.431Z,56.50
2018-11-25T20:29:26.000Z,53.47
2018-11-25T20:32:35.645Z,68.07
2018-11-25T20:35:40.596Z,65.17
2018-11-25T20:38:50.381Z,55.90
2018-11-25T20:41:54.924Z,55.30
2018-11-25T20:44:59.445Z,52.43
2018-11-25T20:48:04.108Z,54.47
2018-11-25T20:51:08.722Z,62.10
2018-11-25T20:54:13.398Z,62.60
2018-11-25T20:57:18.019Z,59.67
2018-11-25T21:00:23.844Z,63.67
2018-11-25T21:03:28.480Z,66.10
2018-11-25T21:06:33.019Z,58.20
2018-11-25T21:09:37.635Z,75.07
2018-11-25T21:12:43.084Z,58.73
2018-11-25T21:15:47.721Z,58.87
2018-11-25T21:18:52.253Z,62.23
2018-11-25T21:21:56.797Z,59.63
2018-11-25T21:25:01.442Z,73.23
2018-11-25T21:28:06.091Z,62.43
2018-11-25T21:31:10.677Z,60.10
2018-11-25T21:34:15.267Z,58.90
2018-11-25T21:37:19.829Z,57.40
2018-11-25T21:40:25.414Z,61.23
2018-11-25T21:43:30.160Z,56.07
2018-11-25T21:46:34.848Z,55.70
2018-11-25T21:49:39.381Z,53.50
2018-11-25T21:52:43.948Z,56.13
2018-11-25T21:58:53.132Z,56.73
2018-11-25T22:01:57.708Z,58.70
2018-11-25T22:05:02.250Z,59.37
2018-11-25T22:08:07.049Z,57.13
2018-11-25T22:11:11.655Z,62.50
2018-11-25T22:14:16.193Z,59.03
2018-11-25T22:17:20.807Z,61.13
2018-11-25T22:20:25.372Z,64.00
2018-11-25T22:23:29.966Z,60.60
2018-11-25T22:26:34.531Z,56.13
2018-11-25T22:29:39.142Z,55.97
2018-11-25T22:32:43.708Z,55.60
2018-11-25T22:35:48.356Z,53.70
2018-11-25T22:38:52.922Z,52.73
2018-11-25T22:41:57.497Z,52.07
2018-11-25T22:45:02.182Z,52.23
2018-11-25T22:48:06.949Z,51.70
2018-11-25T22:51:11.864Z,51.57
2018-11-25T22:54:16.398Z,54.00
2018-11-25T22:57:20.972Z,53.60
2018-11-25T23:00:33.985Z,54.83
2018-11-25T23:03:38.581Z,54.17
2018-11-25T23:06:54.200Z,54.03
2018-11-25T23:09:58.771Z,53.13
2018-11-25T23:13:03.428Z,55.50
2018-11-25T23:16:07.964Z,54.27
2018-11-25T23:19:12.619Z,51.80
2018-11-25T23:22:17.249Z,59.17
2018-11-25T23:25:21.911Z,54.20
2018-11-25T23:28:26.512Z,51.43
2018-11-25T23:31:31.127Z,51.57
2018-11-25T23:34:35.665Z,49.37
2018-11-25T23:37:40.319Z,45.23
2018-11-25T23:40:44.910Z,49.87
2018-11-25T23:43:49.480Z,48.93
2018-11-25T23:46:54.091Z,49.03
2018-11-25T23:49:58.638Z,49.97
2018-11-25T23:53:03.259Z,47.77
2018-11-25T23:56:07.803Z,50.37
2018-11-25T23:59:12.328Z,48.53
